Alum Bridge, West Virginia
Current Conditions -  °F | °C
As of 4:35 AM on Thursday 27 Nov 2014 (Local Time) from KW22 Reporting Station
Moderate Fog Moderate Fog  
Wind Chill: -1°   Ceiling: 100
Heat Index: -1°   Visibility: 0mi
Dew Point: -1°   Wind: 0mph
Humidity: 100%   Direction: NA
Pressure: 29.97"   Gusts: NA
Location:  39.04°N, 80.66°W
Report Text: KW22 270935Z AUTO 00000KT M1/4SM FZFG OVC001 M01/M01 A2997 RMK AO2
Loading
Personal Weather Stations






























Interactive Weather Map New forecast layout! Learn more

10-Day Weather Forecast

Advertisements
Track Severe Weather on mobile